sensor_id;sensor_type;location;lat;lon;timestamp;pressure;altitude;pressure_sealevel;temperature
62706;BMP280;51050;51.784;9.372;2022-11-20T00:01:04;100155.66;;;15.20
62706;BMP280;51050;51.784;9.372;2022-11-20T00:03:29;100146.56;;;15.20
62706;BMP280;51050;51.784;9.372;2022-11-20T00:05:59;100154.66;;;15.16
62706;BMP280;51050;51.784;9.372;2022-11-20T00:08:24;100158.22;;;15.17
62706;BMP280;51050;51.784;9.372;2022-11-20T00:10:49;100149.97;;;15.17
62706;BMP280;51050;51.784;9.372;2022-11-20T00:13:14;100148.03;;;15.17
62706;BMP280;51050;51.784;9.372;2022-11-20T00:15:39;100145.91;;;15.14
62706;BMP280;51050;51.784;9.372;2022-11-20T00:18:04;100152.22;;;15.14
62706;BMP280;51050;51.784;9.372;2022-11-20T00:20:29;100149.47;;;15.14
62706;BMP280;51050;51.784;9.372;2022-11-20T00:22:55;100151.44;;;15.14
62706;BMP280;51050;51.784;9.372;2022-11-20T00:25:20;100152.22;;;15.14
62706;BMP280;51050;51.784;9.372;2022-11-20T00:27:45;100161.66;;;15.13
62706;BMP280;51050;51.784;9.372;2022-11-20T00:30:10;100145.09;;;15.13
62706;BMP280;51050;51.784;9.372;2022-11-20T00:32:35;100150.13;;;15.11
62706;BMP280;51050;51.784;9.372;2022-11-20T00:35:00;100151.25;;;15.10
62706;BMP280;51050;51.784;9.372;2022-11-20T00:37:26;100156.44;;;15.12
62706;BMP280;51050;51.784;9.372;2022-11-20T00:39:51;100155.94;;;15.10
62706;BMP280;51050;51.784;9.372;2022-11-20T00:42:16;100147.38;;;15.11
62706;BMP280;51050;51.784;9.372;2022-11-20T00:44:41;100148.50;;;15.10
62706;BMP280;51050;51.784;9.372;2022-11-20T00:47:06;100141.03;;;15.11
62706;BMP280;51050;51.784;9.372;2022-11-20T00:49:31;100143.28;;;15.09
62706;BMP280;51050;51.784;9.372;2022-11-20T00:51:56;100144.09;;;15.09
62706;BMP280;51050;51.784;9.372;2022-11-20T00:54:22;100136.47;;;15.06
62706;BMP280;51050;51.784;9.372;2022-11-20T00:56:47;100141.66;;;15.08
62706;BMP280;51050;51.784;9.372;2022-11-20T00:59:12;100145.22;;;15.08
62706;BMP280;51050;51.784;9.372;2022-11-20T01:01:37;100141.16;;;15.06
62706;BMP280;51050;51.784;9.372;2022-11-20T01:04:03;100134.88;;;15.05
62706;BMP280;51050;51.784;9.372;2022-11-20T01:06:30;100129.81;;;15.07
62706;BMP280;51050;51.784;9.372;2022-11-20T01:08:56;100132.88;;;15.06
62706;BMP280;51050;51.784;9.372;2022-11-20T01:11:25;100134.38;;;15.03
62706;BMP280;51050;51.784;9.372;2022-11-20T01:13:52;100121.41;;;15.04
62706;BMP280;51050;51.784;9.372;2022-11-20T01:16:19;100122.53;;;15.03
62706;BMP280;51050;51.784;9.372;2022-11-20T01:18:45;100119.44;;;15.04
62706;BMP280;51050;51.784;9.372;2022-11-20T01:21:12;100117.50;;;15.05
62706;BMP280;51050;51.784;9.372;2022-11-20T01:23:39;100119.44;;;15.04
62706;BMP280;51050;51.784;9.372;2022-11-20T01:26:05;100124.16;;;15.04
62706;BMP280;51050;51.784;9.372;2022-11-20T01:28:30;100128.03;;;15.03
62706;BMP280;51050;51.784;9.372;2022-11-20T01:30:56;100123.16;;;15.00
62706;BMP280;51050;51.784;9.372;2022-11-20T01:33:21;100118.44;;;15.00
62706;BMP280;51050;51.784;9.372;2022-11-20T01:35:47;100113.25;;;14.99
62706;BMP280;51050;51.784;9.372;2022-11-20T01:38:12;100109.38;;;15.00
62706;BMP280;51050;51.784;9.372;2022-11-20T01:40:37;100112.13;;;15.00
62706;BMP280;51050;51.784;9.372;2022-11-20T01:43:10;100123.16;;;15.00
62706;BMP280;51050;51.784;9.372;2022-11-20T01:48:28;100114.06;;;14.99
62706;BMP280;51050;51.784;9.372;2022-11-20T01:50:55;100112.13;;;15.00
62706;BMP280;51050;51.784;9.372;2022-11-20T01:53:23;100110.19;;;15.00
62706;BMP280;51050;51.784;9.372;2022-11-20T01:55:51;100103.34;;;14.98
62706;BMP280;51050;51.784;9.372;2022-11-20T01:58:19;100108.06;;;14.97
62706;BMP280;51050;51.784;9.372;2022-11-20T02:00:46;100105.66;;;14.96
62706;BMP280;51050;51.784;9.372;2022-11-20T02:03:12;100111.63;;;14.98
62706;BMP280;51050;51.784;9.372;2022-11-20T02:05:41;100115.53;;;14.97
62706;BMP280;51050;51.784;9.372;2022-11-20T02:08:08;100109.22;;;14.96
62706;BMP280;51050;51.784;9.372;2022-11-20T02:10:33;100107.59;;;14.95
62706;BMP280;51050;51.784;9.372;2022-11-20T02:12:58;100096.88;;;14.94
62706;BMP280;51050;51.784;9.372;2022-11-20T02:15:43;100092.50;;;14.93
62706;BMP280;51050;51.784;9.372;2022-11-20T02:18:09;100092.50;;;14.93
62706;BMP280;51050;51.784;9.372;2022-11-20T02:20:34;100092.50;;;14.93
62706;BMP280;51050;51.784;9.372;2022-11-20T02:23:03;100090.56;;;14.93
62706;BMP280;51050;51.784;9.372;2022-11-20T02:25:29;100082.59;;;14.92
62706;BMP280;51050;51.784;9.372;2022-11-20T02:27:57;100093.63;;;14.92
62706;BMP280;51050;51.784;9.372;2022-11-20T02:30:22;100092.31;;;14.89
62706;BMP280;51050;51.784;9.372;2022-11-20T02:32:47;100100.91;;;14.88
62706;BMP280;51050;51.784;9.372;2022-11-20T02:37:43;100090.38;;;14.90
62706;BMP280;51050;51.784;9.372;2022-11-20T02:40:09;100095.41;;;14.88
62706;BMP280;51050;51.784;9.372;2022-11-20T02:42:35;100094.25;;;14.89
62706;BMP280;51050;51.784;9.372;2022-11-20T02:45:01;100093.47;;;14.88
62706;BMP280;51050;51.784;9.372;2022-11-20T02:47:26;100087.13;;;14.88
62706;BMP280;51050;51.784;9.372;2022-11-20T02:49:51;100091.03;;;14.87
62706;BMP280;51050;51.784;9.372;2022-11-20T02:52:16;100088.25;;;14.87
62706;BMP280;51050;51.784;9.372;2022-11-20T02:54:41;100080.00;;;14.87
62706;BMP280;51050;51.784;9.372;2022-11-20T02:57:06;100081.13;;;14.86
62706;BMP280;51050;51.784;9.372;2022-11-20T02:59:32;100080.94;;;14.82
62706;BMP280;51050;51.784;9.372;2022-11-20T03:01:57;100078.69;;;14.84
62706;BMP280;51050;51.784;9.372;2022-11-20T03:04:22;100081.44;;;14.84
62706;BMP280;51050;51.784;9.372;2022-11-20T03:06:47;100077.88;;;14.84
62706;BMP280;51050;51.784;9.372;2022-11-20T03:09:12;100075.94;;;14.84
62706;BMP280;51050;51.784;9.372;2022-11-20T03:11:37;100080.31;;;14.85
62706;BMP280;51050;51.784;9.372;2022-11-20T03:14:03;100077.88;;;14.84
62706;BMP280;51050;51.784;9.372;2022-11-20T03:16:30;100073.00;;;14.81
62706;BMP280;51050;51.784;9.372;2022-11-20T03:18:55;100070.22;;;14.81
62706;BMP280;51050;51.784;9.372;2022-11-20T03:21:20;100065.53;;;14.81
62706;BMP280;51050;51.784;9.372;2022-11-20T03:23:45;100065.06;;;14.79
62706;BMP280;51050;51.784;9.372;2022-11-20T03:26:15;100065.88;;;14.80
62706;BMP280;51050;51.784;9.372;2022-11-20T03:28:41;100061.50;;;14.79
62706;BMP280;51050;51.784;9.372;2022-11-20T03:31:10;100055.16;;;14.78
62706;BMP280;51050;51.784;9.372;2022-11-20T03:33:36;100055.47;;;14.76
62706;BMP280;51050;51.784;9.372;2022-11-20T03:36:05;100061.97;;;14.81
62706;BMP280;51050;51.784;9.372;2022-11-20T03:38:30;100060.69;;;14.78
62706;BMP280;51050;51.784;9.372;2022-11-20T03:41:00;100063.44;;;14.78
62706;BMP280;51050;51.784;9.372;2022-11-20T03:43:25;100059.38;;;14.75
62706;BMP280;51050;51.784;9.372;2022-11-20T03:45:51;100055.81;;;14.75
62706;BMP280;51050;51.784;9.372;2022-11-20T03:48:16;100046.72;;;14.74
62706;BMP280;51050;51.784;9.372;2022-11-20T03:50:41;100047.03;;;14.73
62706;BMP280;51050;51.784;9.372;2022-11-20T03:53:06;100036.81;;;14.73
62706;BMP280;51050;51.784;9.372;2022-11-20T03:55:31;100038.47;;;14.74
62706;BMP280;51050;51.784;9.372;2022-11-20T03:57:56;100040.72;;;14.72
62706;BMP280;51050;51.784;9.372;2022-11-20T04:00:22;100035.19;;;14.72
62706;BMP280;51050;51.784;9.372;2022-11-20T04:02:47;100033.59;;;14.71
62706;BMP280;51050;51.784;9.372;2022-11-20T04:05:12;100034.38;;;14.72
62706;BMP280;51050;51.784;9.372;2022-11-20T04:07:37;100031.16;;;14.70
62706;BMP280;51050;51.784;9.372;2022-11-20T04:10:02;100040.72;;;14.72
62706;BMP280;51050;51.784;9.372;2022-11-20T04:12:31;100035.84;;;14.69
62706;BMP280;51050;51.784;9.372;2022-11-20T04:14:56;100039.44;;;14.70
62706;BMP280;51050;51.784;9.372;2022-11-20T04:17:21;100041.69;;;14.68
62706;BMP280;51050;51.784;9.372;2022-11-20T04:19:46;100033.72;;;14.66
62706;BMP280;51050;51.784;9.372;2022-11-20T04:22:11;100034.03;;;14.65
62706;BMP280;51050;51.784;9.372;2022-11-20T04:24:37;100038.75;;;14.64
62706;BMP280;51050;51.784;9.372;2022-11-20T04:27:02;100037.31;;;14.67
62706;BMP280;51050;51.784;9.372;2022-11-20T04:29:27;100040.38;;;14.65
62706;BMP280;51050;51.784;9.372;2022-11-20T04:31:52;100033.72;;;14.66
62706;BMP280;51050;51.784;9.372;2022-11-20T04:34:17;100030.97;;;14.66
62706;BMP280;51050;51.784;9.372;2022-11-20T04:36:42;100042.31;;;14.65
62706;BMP280;51050;51.784;9.372;2022-11-20T04:39:11;100042.63;;;14.63
62706;BMP280;51050;51.784;9.372;2022-11-20T04:41:37;100042.63;;;14.63
62706;BMP280;51050;51.784;9.372;2022-11-20T04:44:03;100034.03;;;14.65
62706;BMP280;51050;51.784;9.372;2022-11-20T04:46:29;100032.75;;;14.62
62706;BMP280;51050;51.784;9.372;2022-11-20T04:48:55;100033.22;;;14.64
62706;BMP280;51050;51.784;9.372;2022-11-20T04:51:20;100031.59;;;14.63
62706;BMP280;51050;51.784;9.372;2022-11-20T04:53:46;100028.53;;;14.65
62706;BMP280;51050;51.784;9.372;2022-11-20T04:56:11;100028.06;;;14.63
62706;BMP280;51050;51.784;9.372;2022-11-20T04:58:37;100024.50;;;14.62
62706;BMP280;51050;51.784;9.372;2022-11-20T05:01:03;100028.38;;;14.61
62706;BMP280;51050;51.784;9.372;2022-11-20T05:03:28;100016.84;;;14.59
62706;BMP280;51050;51.784;9.372;2022-11-20T05:05:54;100022.88;;;14.61
62706;BMP280;51050;51.784;9.372;2022-11-20T05:08:19;100029.31;;;14.57
62706;BMP280;51050;51.784;9.372;2022-11-20T05:10:44;100022.69;;;14.58
62706;BMP280;51050;51.784;9.372;2022-11-20T05:13:09;100019.78;;;14.54
62706;BMP280;51050;51.784;9.372;2022-11-20T05:15:34;100023.00;;;14.56
62706;BMP280;51050;51.784;9.372;2022-11-20T05:17:59;100025.28;;;14.54
62706;BMP280;51050;51.784;9.372;2022-11-20T05:20:24;100026.88;;;14.55
62706;BMP280;51050;51.784;9.372;2022-11-20T05:22:50;100022.53;;;14.54
62706;BMP280;51050;51.784;9.372;2022-11-20T05:25:15;100023.66;;;14.53
62706;BMP280;51050;51.784;9.372;2022-11-20T05:27:40;100026.41;;;14.53
62706;BMP280;51050;51.784;9.372;2022-11-20T05:30:05;100020.09;;;14.53
62706;BMP280;51050;51.784;9.372;2022-11-20T05:32:31;100026.41;;;14.53
62706;BMP280;51050;51.784;9.372;2022-11-20T05:34:56;100027.22;;;14.54
62706;BMP280;51050;51.784;9.372;2022-11-20T05:37:21;100035.47;;;14.54
62706;BMP280;51050;51.784;9.372;2022-11-20T05:39:46;100029.97;;;14.54
62706;BMP280;51050;51.784;9.372;2022-11-20T05:42:11;100028.34;;;14.53
62706;BMP280;51050;51.784;9.372;2022-11-20T05:44:55;100029.47;;;14.52
62706;BMP280;51050;51.784;9.372;2022-11-20T05:47:20;100027.03;;;14.50
62706;BMP280;51050;51.784;9.372;2022-11-20T05:49:45;100039.69;;;14.51
62706;BMP280;51050;51.784;9.372;2022-11-20T05:52:11;100036.72;;;14.48
62706;BMP280;51050;51.784;9.372;2022-11-20T05:54:36;100032.03;;;14.48
62706;BMP280;51050;51.784;9.372;2022-11-20T05:57:01;100032.34;;;14.47
62706;BMP280;51050;51.784;9.372;2022-11-20T05:59:26;100035.91;;;14.47
62706;BMP280;51050;51.784;9.372;2022-11-20T06:01:51;100033.16;;;14.47
62706;BMP280;51050;51.784;9.372;2022-11-20T06:04:16;100036.25;;;14.46
62706;BMP280;51050;51.784;9.372;2022-11-20T06:06:42;100038.34;;;14.49
62706;BMP280;51050;51.784;9.372;2022-11-20T06:09:07;100033.16;;;14.47
62706;BMP280;51050;51.784;9.372;2022-11-20T06:11:32;100035.44;;;14.45
62706;BMP280;51050;51.784;9.372;2022-11-20T06:13:57;100031.88;;;14.45
62706;BMP280;51050;51.784;9.372;2022-11-20T06:16:22;100027.81;;;14.42
62706;BMP280;51050;51.784;9.372;2022-11-20T06:18:47;100036.56;;;14.44
62706;BMP280;51050;51.784;9.372;2022-11-20T06:21:17;100029.44;;;14.43
62706;BMP280;51050;51.784;9.372;2022-11-20T06:23:42;100025.06;;;14.42
62706;BMP280;51050;51.784;9.372;2022-11-20T06:26:09;100026.38;;;14.45
62706;BMP280;51050;51.784;9.372;2022-11-20T06:28:35;100014.03;;;14.42
62706;BMP280;51050;51.784;9.372;2022-11-20T06:31:00;100016.28;;;14.40
62706;BMP280;51050;51.784;9.372;2022-11-20T06:33:25;100014.66;;;14.39
62706;BMP280;51050;51.784;9.372;2022-11-20T06:35:51;100013.84;;;14.38
62706;BMP280;51050;51.784;9.372;2022-11-20T06:38:16;100019.34;;;14.38
62706;BMP280;51050;51.784;9.372;2022-11-20T06:40:41;100011.41;;;14.37
62706;BMP280;51050;51.784;9.372;2022-11-20T06:43:07;100020.16;;;14.39
62706;BMP280;51050;51.784;9.372;2022-11-20T06:45:32;100013.84;;;14.38
62706;BMP280;51050;51.784;9.372;2022-11-20T06:47:57;100011.09;;;14.38
62706;BMP280;51050;51.784;9.372;2022-11-20T06:50:23;100014.16;;;14.37
62706;BMP280;51050;51.784;9.372;2022-11-20T06:52:48;100003.94;;;14.37
62706;BMP280;51050;51.784;9.372;2022-11-20T06:55:13;100006.59;;;14.43
62706;BMP280;51050;51.784;9.372;2022-11-20T06:57:38;100011.78;;;14.44
62706;BMP280;51050;51.784;9.372;2022-11-20T07:00:04;100005.63;;;14.47
62706;BMP280;51050;51.784;9.372;2022-11-20T07:02:29;100005.31;;;14.49
62706;BMP280;51050;51.784;9.372;2022-11-20T07:04:54;100009.06;;;14.53
62706;BMP280;51050;51.784;9.372;2022-11-20T07:07:19;100010.84;;;14.57
62706;BMP280;51050;51.784;9.372;2022-11-20T07:09:45;100009.72;;;14.58
62706;BMP280;51050;51.784;9.372;2022-11-20T07:12:10;100007.16;;;14.62
62706;BMP280;51050;51.784;9.372;2022-11-20T07:14:35;100003.59;;;14.61
62706;BMP280;51050;51.784;9.372;2022-11-20T07:17:00;100004.25;;;14.67
62706;BMP280;51050;51.784;9.372;2022-11-20T07:19:25;100011.69;;;14.66
62706;BMP280;51050;51.784;9.372;2022-11-20T07:21:50;100015.25;;;14.67
62706;BMP280;51050;51.784;9.372;2022-11-20T07:24:16;100014.63;;;14.70
62706;BMP280;51050;51.784;9.372;2022-11-20T07:26:41;100011.56;;;14.71
62706;BMP280;51050;51.784;9.372;2022-11-20T07:29:06;100019.84;;;14.71
62706;BMP280;51050;51.784;9.372;2022-11-20T07:31:31;100027.44;;;14.74
62706;BMP280;51050;51.784;9.372;2022-11-20T07:33:56;100027.44;;;14.74
62706;BMP280;51050;51.784;9.372;2022-11-20T07:36:22;100029.06;;;14.75
62706;BMP280;51050;51.784;9.372;2022-11-20T07:38:47;100031.81;;;14.75
62706;BMP280;51050;51.784;9.372;2022-11-20T07:41:12;100037.00;;;14.77
62706;BMP280;51050;51.784;9.372;2022-11-20T07:43:37;100031.66;;;14.81
62706;BMP280;51050;51.784;9.372;2022-11-20T07:46:02;100027.78;;;14.82
62706;BMP280;51050;51.784;9.372;2022-11-20T07:48:28;100031.22;;;14.87
62706;BMP280;51050;51.784;9.372;2022-11-20T07:50:54;100028.28;;;14.92
62706;BMP280;51050;51.784;9.372;2022-11-20T07:53:20;100027.34;;;14.97
62706;BMP280;51050;51.784;9.372;2022-11-20T07:55:46;100034.00;;;14.96
62706;BMP280;51050;51.784;9.372;2022-11-20T07:58:11;100045.47;;;14.98
62706;BMP280;51050;51.784;9.372;2022-11-20T08:00:36;100037.72;;;15.00
62706;BMP280;51050;51.784;9.372;2022-11-20T08:03:05;100036.91;;;14.99
62706;BMP280;51050;51.784;9.372;2022-11-20T08:05:30;100040.47;;;15.00
62706;BMP280;51050;51.784;9.372;2022-11-20T08:07:56;100044.84;;;15.01
62706;BMP280;51050;51.784;9.372;2022-11-20T08:10:21;100038.22;;;15.02
62706;BMP280;51050;51.784;9.372;2022-11-20T08:12:47;100034.47;;;15.06
62706;BMP280;51050;51.784;9.372;2022-11-20T08:15:30;100038.53;;;15.09
62706;BMP280;51050;51.784;9.372;2022-11-20T08:18:00;100042.94;;;15.10
62706;BMP280;51050;51.784;9.372;2022-11-20T08:20:26;100038.22;;;15.10
62706;BMP280;51050;51.784;9.372;2022-11-20T08:22:51;100040.16;;;15.10
62706;BMP280;51050;51.784;9.372;2022-11-20T08:25:16;100029.16;;;15.10
62706;BMP280;51050;51.784;9.372;2022-11-20T08:27:41;100035.78;;;15.09
62706;BMP280;51050;51.784;9.372;2022-11-20T08:30:06;100040.97;;;15.10
62706;BMP280;51050;51.784;9.372;2022-11-20T08:32:32;100046.81;;;15.09
62706;BMP280;51050;51.784;9.372;2022-11-20T08:34:57;100052.31;;;15.09
62706;BMP280;51050;51.784;9.372;2022-11-20T08:37:22;100047.94;;;15.08
62706;BMP280;51050;51.784;9.372;2022-11-20T08:39:47;100047.13;;;15.07
62706;BMP280;51050;51.784;9.372;2022-11-20T08:42:12;100049.06;;;15.07
62706;BMP280;51050;51.784;9.372;2022-11-20T08:44:38;100039.66;;;15.08
62706;BMP280;51050;51.784;9.372;2022-11-20T08:47:03;100036.91;;;15.08
62706;BMP280;51050;51.784;9.372;2022-11-20T08:49:28;100033.66;;;15.06
62706;BMP280;51050;51.784;9.372;2022-11-20T08:51:53;100041.47;;;15.04
62706;BMP280;51050;51.784;9.372;2022-11-20T08:54:20;100039.84;;;15.03
62706;BMP280;51050;51.784;9.372;2022-11-20T08:56:46;100039.03;;;15.02
62706;BMP280;51050;51.784;9.372;2022-11-20T08:59:12;100033.00;;;15.00
62706;BMP280;51050;51.784;9.372;2022-11-20T09:01:37;100034.97;;;15.00
62706;BMP280;51050;51.784;9.372;2022-11-20T09:04:02;100036.09;;;14.99
62706;BMP280;51050;51.784;9.372;2022-11-20T09:06:28;100035.28;;;14.98
62706;BMP280;51050;51.784;9.372;2022-11-20T09:08:53;100032.84;;;14.97
62706;BMP280;51050;51.784;9.372;2022-11-20T09:11:19;100040.31;;;14.96
62706;BMP280;51050;51.784;9.372;2022-11-20T09:13:44;100036.75;;;14.96
62706;BMP280;51050;51.784;9.372;2022-11-20T09:16:09;100024.59;;;14.97
62706;BMP280;51050;51.784;9.372;2022-11-20T09:18:35;100026.19;;;14.98
62706;BMP280;51050;51.784;9.372;2022-11-20T09:21:09;100020.69;;;14.98
62706;BMP280;51050;51.784;9.372;2022-11-20T09:23:35;100023.94;;;15.00
62706;BMP280;51050;51.784;9.372;2022-11-20T09:26:02;100022.31;;;14.99
62706;BMP280;51050;51.784;9.372;2022-11-20T09:28:27;100014.53;;;15.01
62706;BMP280;51050;51.784;9.372;2022-11-20T09:30:52;100016.97;;;15.02
62706;BMP280;51050;51.784;9.372;2022-11-20T09:33:17;100015.84;;;15.03
62706;BMP280;51050;51.784;9.372;2022-11-20T09:35:43;100013.91;;;15.04
62706;BMP280;51050;51.784;9.372;2022-11-20T09:38:08;100011.59;;;15.06
62706;BMP280;51050;51.784;9.372;2022-11-20T09:40:35;100016.81;;;15.07
62706;BMP280;51050;51.784;9.372;2022-11-20T09:43:15;100012.09;;;15.08
62706;BMP280;51050;51.784;9.372;2022-11-20T09:48:24;100013.09;;;15.12
62706;BMP280;51050;51.784;9.372;2022-11-20T09:53:44;100004.50;;;15.13
62706;BMP280;51050;51.784;9.372;2022-11-20T09:56:13;100001.75;;;15.13
62706;BMP280;51050;51.784;9.372;2022-11-20T09:58:40;99999.81;;;15.14
62706;BMP280;51050;51.784;9.372;2022-11-20T10:01:14;100002.22;;;15.15
62706;BMP280;51050;51.784;9.372;2022-11-20T10:03:45;100003.34;;;15.14
62706;BMP280;51050;51.784;9.372;2022-11-20T10:06:15;100002.56;;;15.14
62706;BMP280;51050;51.784;9.372;2022-11-20T10:08:43;100006.09;;;15.14
62706;BMP280;51050;51.784;9.372;2022-11-20T10:21:30;100001.56;;;15.10
62706;BMP280;51050;51.784;9.372;2022-11-20T10:26:52;99998.81;;;15.10
62706;BMP280;51050;51.784;9.372;2022-11-20T10:29:22;99996.06;;;15.10
62706;BMP280;51050;51.784;9.372;2022-11-20T10:31:55;99996.06;;;15.10
62706;BMP280;51050;51.784;9.372;2022-11-20T10:34:34;99996.38;;;15.08
62706;BMP280;51050;51.784;9.372;2022-11-20T10:37:06;99994.44;;;15.09
62706;BMP280;51050;51.784;9.372;2022-11-20T10:42:08;99989.25;;;15.07
62706;BMP280;51050;51.784;9.372;2022-11-20T10:44:35;99984.53;;;15.08
62706;BMP280;51050;51.784;9.372;2022-11-20T10:47:20;99977.09;;;15.08
62706;BMP280;51050;51.784;9.372;2022-11-20T10:49:47;99973.19;;;15.09
62706;BMP280;51050;51.784;9.372;2022-11-20T10:52:27;99961.03;;;15.10
62706;BMP280;51050;51.784;9.372;2022-11-20T10:55:18;99966.25;;;15.12
62706;BMP280;51050;51.784;9.372;2022-11-20T11:00:16;99895.88;;;14.71
62706;BMP280;51050;51.784;9.372;2022-11-20T11:05:18;99947.91;;;15.16
62706;BMP280;51050;51.784;9.372;2022-11-20T11:07:48;99940.13;;;15.18
62706;BMP280;51050;51.784;9.372;2022-11-20T11:10:18;99945.63;;;15.18
62706;BMP280;51050;51.784;9.372;2022-11-20T11:12:46;99949.22;;;15.19
62706;BMP280;51050;51.784;9.372;2022-11-20T11:15:14;99940.63;;;15.20
62706;BMP280;51050;51.784;9.372;2022-11-20T11:17:45;99936.72;;;15.21
62706;BMP280;51050;51.784;9.372;2022-11-20T11:20:16;99927.66;;;15.21
62706;BMP280;51050;51.784;9.372;2022-11-20T11:22:52;99921.81;;;15.22
62706;BMP280;51050;51.784;9.372;2022-11-20T11:27:49;99916.28;;;15.22
62706;BMP280;51050;51.784;9.372;2022-11-20T11:30:16;99915.47;;;15.22
62706;BMP280;51050;51.784;9.372;2022-11-20T11:32:41;99909.16;;;15.21
62706;BMP280;51050;51.784;9.372;2022-11-20T11:35:17;99904.47;;;15.22
62706;BMP280;51050;51.784;9.372;2022-11-20T11:37:43;99898.28;;;15.25
62706;BMP280;51050;51.784;9.372;2022-11-20T11:40:10;99901.50;;;15.27
62706;BMP280;51050;51.784;9.372;2022-11-20T11:42:39;99898.28;;;15.25
62706;BMP280;51050;51.784;9.372;2022-11-20T11:45:06;99891.47;;;15.22
62706;BMP280;51050;51.784;9.372;2022-11-20T11:47:32;99885.97;;;15.22
62706;BMP280;51050;51.784;9.372;2022-11-20T11:50:02;99880.78;;;15.21
62706;BMP280;51050;51.784;9.372;2022-11-20T11:52:27;99873.63;;;15.20
62706;BMP280;51050;51.784;9.372;2022-11-20T11:54:55;99874.44;;;15.20
62706;BMP280;51050;51.784;9.372;2022-11-20T11:57:23;99876.06;;;15.21
62706;BMP280;51050;51.784;9.372;2022-11-20T12:00:00;99869.75;;;15.21
62706;BMP280;51050;51.784;9.372;2022-11-20T12:02:36;99880.47;;;15.22
62706;BMP280;51050;51.784;9.372;2022-11-20T12:05:17;99880.47;;;15.22
62706;BMP280;51050;51.784;9.372;2022-11-20T12:07:45;99878.84;;;15.21
62706;BMP280;51050;51.784;9.372;2022-11-20T12:10:15;99880.47;;;15.22
62706;BMP280;51050;51.784;9.372;2022-11-20T12:12:46;99868.63;;;15.22
62706;BMP280;51050;51.784;9.372;2022-11-20T12:15:15;99870.56;;;15.21
62706;BMP280;51050;51.784;9.372;2022-11-20T12:17:41;99870.56;;;15.21
62706;BMP280;51050;51.784;9.372;2022-11-20T12:20:15;99861.47;;;15.21
62706;BMP280;51050;51.784;9.372;2022-11-20T12:22:47;99870.22;;;15.23
62706;BMP280;51050;51.784;9.372;2022-11-20T12:25:19;99863.94;;;15.05
62706;BMP280;51050;51.784;9.372;2022-11-20T12:27:55;99864.84;;;14.40
62706;BMP280;51050;51.784;9.372;2022-11-20T12:30:24;99862.19;;;11.81
62706;BMP280;51050;51.784;9.372;2022-11-20T12:42:54;99860.06;;;14.71
62706;BMP280;51050;51.784;9.372;2022-11-20T12:45:42;99858.56;;;14.83
62706;BMP280;51050;51.784;9.372;2022-11-20T12:48:22;99854.19;;;14.90
62706;BMP280;51050;51.784;9.372;2022-11-20T12:53:40;99846.72;;;14.99
62706;BMP280;51050;51.784;9.372;2022-11-20T13:01:40;99863.75;;;15.10
62706;BMP280;51050;51.784;9.372;2022-11-20T13:04:23;99856.13;;;15.15
62706;BMP280;51050;51.784;9.372;2022-11-20T13:06:57;99855.47;;;15.19
62706;BMP280;51050;51.784;9.372;2022-11-20T13:09:23;99851.59;;;15.20
62706;BMP280;51050;51.784;9.372;2022-11-20T13:14:32;99837.13;;;15.23
62706;BMP280;51050;51.784;9.372;2022-11-20T13:19:25;99833.72;;;15.26
62706;BMP280;51050;51.784;9.372;2022-11-20T13:21:51;99830.63;;;15.27
62706;BMP280;51050;51.784;9.372;2022-11-20T13:26:44;99829.19;;;15.30
62706;BMP280;51050;51.784;9.372;2022-11-20T13:29:16;99837.09;;;15.31
62706;BMP280;51050;51.784;9.372;2022-11-20T13:31:43;99834.69;;;15.30
62706;BMP280;51050;51.784;9.372;2022-11-20T13:34:09;99830.00;;;15.30
62706;BMP280;51050;51.784;9.372;2022-11-20T13:36:37;99828.06;;;15.31
62706;BMP280;51050;51.784;9.372;2022-11-20T13:39:23;99829.66;;;15.32
62706;BMP280;51050;51.784;9.372;2022-11-20T13:41:53;99822.53;;;15.31
62706;BMP280;51050;51.784;9.372;2022-11-20T13:44:27;99816.66;;;15.32
62706;BMP280;51050;51.784;9.372;2022-11-20T13:46:53;99821.38;;;15.32
62706;BMP280;51050;51.784;9.372;2022-11-20T13:49:37;99803.69;;;15.33
62706;BMP280;51050;51.784;9.372;2022-11-20T13:52:22;99800.59;;;15.34
62706;BMP280;51050;51.784;9.372;2022-11-20T13:57:41;99798.66;;;15.35
62706;BMP280;51050;51.784;9.372;2022-11-20T14:02:35;99792.66;;;15.33
62706;BMP280;51050;51.784;9.372;2022-11-20T14:05:00;99795.75;;;15.31
62706;BMP280;51050;51.784;9.372;2022-11-20T14:07:36;99795.28;;;15.29
62706;BMP280;51050;51.784;9.372;2022-11-20T14:10:03;99788.97;;;15.29
62706;BMP280;51050;51.784;9.372;2022-11-20T14:12:29;99788.47;;;15.27
62706;BMP280;51050;51.784;9.372;2022-11-20T14:14:55;99781.00;;;15.27
62706;BMP280;51050;51.784;9.372;2022-11-20T14:17:21;99792.84;;;15.28
62706;BMP280;51050;51.784;9.372;2022-11-20T14:19:47;99783.94;;;15.31
62706;BMP280;51050;51.784;9.372;2022-11-20T14:24:38;99784.69;;;15.40
62706;BMP280;51050;51.784;9.372;2022-11-20T14:27:03;99784.56;;;15.36
62706;BMP280;51050;51.784;9.372;2022-11-20T14:29:29;99779.03;;;15.36
62706;BMP280;51050;51.784;9.372;2022-11-20T14:31:58;99782.94;;;15.35
62706;BMP280;51050;51.784;9.372;2022-11-20T14:34:25;99775.47;;;15.36
62706;BMP280;51050;51.784;9.372;2022-11-20T14:37:01;99772.72;;;15.36
62706;BMP280;51050;51.784;9.372;2022-11-20T14:39:30;99772.38;;;15.37
62706;BMP280;51050;51.784;9.372;2022-11-20T14:41:55;99761.34;;;15.37
62706;BMP280;51050;51.784;9.372;2022-11-20T14:44:22;99757.78;;;15.37
62706;BMP280;51050;51.784;9.372;2022-11-20T14:46:48;99748.38;;;15.38
62706;BMP280;51050;51.784;9.372;2022-11-20T14:49:15;99751.94;;;15.38
62706;BMP280;51050;51.784;9.372;2022-11-20T14:51:40;99745.63;;;15.38
62706;BMP280;51050;51.784;9.372;2022-11-20T14:54:10;99753.91;;;15.38
62706;BMP280;51050;51.784;9.372;2022-11-20T14:56:36;99747.56;;;15.37
62706;BMP280;51050;51.784;9.372;2022-11-20T14:59:01;99743.19;;;15.36
62706;BMP280;51050;51.784;9.372;2022-11-20T15:01:27;99736.06;;;15.35
62706;BMP280;51050;51.784;9.372;2022-11-20T15:04:06;99731.69;;;15.34
62706;BMP280;51050;51.784;9.372;2022-11-20T15:06:32;99730.53;;;15.35